Garcia del Cid — EHUU — position and weather

sailwx.info

Track history (hours):
 
Tides and Currents Weather Stations Pressure Air Temp Water Temp Dewpoint Dewpoint Depression Visibility Wind Speed Wind Dir Waves Ship Positions

Oceanographic research ship Garcia del Cid (Spain)

Detailed information on ship capabilities available from University of Delaware's Ocean Information Center.

Last reported at 2017-Mar-20 20:24 UTC. Time now 2017-Mar-25 09:41 UTC.
Position N 41°22' E 002°11'.

Length 30 m; draft 4.8 m.

Type: Dredging. MMSI: 224799000.

Date/timePositionNaut miles runAvg speedWind from/ knotsBaromVisibWave heightAir tempDewpointWater temp
2017-Mar-20 20:24N 41°22' E 002°11'15 8.0
2017-Mar-20 18:30N 41°25' E 002°31'30 3.2
2017-Mar-20 09:08N 41°31' E 003°10'0 0.1
2017-Mar-20 07:28N 41°31' E 003°10'0 0.1
2017-Mar-20 06:30N 41°31' E 003°10'2 1.0
2017-Mar-20 04:26N 41°30' E 003°08'  
2017-Mar-17 15:16N 41°46' E 003°07'4 3.7
2017-Mar-17 14:12N 41°50' E 003°10'2 1.4
2017-Mar-17 13:06N 41°50' E 003°12'1 1.1
2017-Mar-17 12:33N 41°50' E 003°12'2 1.8
2017-Mar-17 11:33N 41°52' E 003°13'6 2.6
2017-Mar-17 09:07N 41°48' E 003°20'1 1.6
2017-Mar-17 08:27N 41°48' E 003°22'0 0.1
2017-Mar-17 05:11N 41°48' E 003°22'0 0.4
2017-Mar-17 04:21N 41°48' E 003°22'1 0.7
2017-Mar-17 03:31N 41°48' E 003°21'2 1.7
2017-Mar-17 02:33N 41°48' E 003°20'1 0.7
2017-Mar-17 01:29N 41°49' E 003°19'0 0.3
2017-Mar-17 00:32N 41°49' E 003°19'2 1.7
2017-Mar-16 23:33N 41°48' E 003°21'1 1.0
2017-Mar-16 22:32N 41°48' E 003°22'1 0.5
2017-Mar-16 21:33N 41°48' E 003°21'1 1.0
2017-Mar-16 20:29N 41°48' E 003°20'2 1.7
2017-Mar-16 19:31N 41°50' E 003°19'2 0.7
2017-Mar-16 16:28N 41°48' E 003°21'1 1.3
2017-Mar-16 15:33N 41°49' E 003°20'23 1.2
2017-Mar-15 19:27N 42°11' E 003°31'1 1.3
2017-Mar-15 18:33N 42°10' E 003°32'6 2.9
2017-Mar-15 16:32N 42°09' E 003°40'  
2017-Mar-12 02:22N 41°23' E 002°11'0 0.0
2017-Mar-12 01:23N 41°23' E 002°11'0 0.0
2017-Mar-11 23:13N 41°23' E 002°11'0 0.0
2017-Mar-11 20:23N 41°23' E 002°11'0 0.0
2017-Mar-11 19:27N 41°23' E 002°11'0 0.0
2017-Mar-11 18:30N 41°23' E 002°11'0 0.0
2017-Mar-11 17:33N 41°23' E 002°11'0 0.0
2017-Mar-11 16:33N 41°23' E 002°11'0 0.0
2017-Mar-11 15:33N 41°23' E 002°11'0 0.0
2017-Mar-11 14:34N 41°23' E 002°11'0 0.0
2017-Mar-11 13:33N 41°23' E 002°11'0 0.0
2017-Mar-11 12:31N 41°23' E 002°11'0 0.0
2017-Mar-11 07:34N 41°23' E 002°11'0 0.0
2017-Mar-11 06:31N 41°23' E 002°11'0 0.0
2017-Mar-11 05:25N 41°23' E 002°11'  
Track history (hours):
 
Tides and Currents Weather Stations Pressure Air Temp Water Temp Dewpoint Dewpoint Depression Visibility Wind Speed Wind Dir Waves Ship Positions

Oceanographic research ship Garcia del Cid (Spain)

Detailed information on ship capabilities available from University of Delaware's Ocean Information Center.

Last reported at 2017-Mar-20 20:24 UTC. Time now 2017-Mar-25 09:41 UTC.
Position N 41°22' E 002°11'.

Length 30 m; draft 4.8 m.

Type: Dredging. MMSI: 224799000.

Date/timePositionNaut miles runAvg speedWind from/ knotsBaromVisibWave heightAir tempDewpointWater temp
2017-Mar-20 20:24N 41°22' E 002°11'15 8.0
2017-Mar-20 18:30N 41°25' E 002°31'30 3.2
2017-Mar-20 09:08N 41°31' E 003°10'0 0.1
2017-Mar-20 07:28N 41°31' E 003°10'0 0.1
2017-Mar-20 06:30N 41°31' E 003°10'2 1.0
2017-Mar-20 04:26N 41°30' E 003°08'  
2017-Mar-17 15:16N 41°46' E 003°07'4 3.7
2017-Mar-17 14:12N 41°50' E 003°10'2 1.4
2017-Mar-17 13:06N 41°50' E 003°12'1 1.1
2017-Mar-17 12:33N 41°50' E 003°12'2 1.8
2017-Mar-17 11:33N 41°52' E 003°13'6 2.6
2017-Mar-17 09:07N 41°48' E 003°20'1 1.6
2017-Mar-17 08:27N 41°48' E 003°22'0 0.1
2017-Mar-17 05:11N 41°48' E 003°22'0 0.4
2017-Mar-17 04:21N 41°48' E 003°22'1 0.7
2017-Mar-17 03:31N 41°48' E 003°21'2 1.7
2017-Mar-17 02:33N 41°48' E 003°20'1 0.7
2017-Mar-17 01:29N 41°49' E 003°19'0 0.3
2017-Mar-17 00:32N 41°49' E 003°19'2 1.7
2017-Mar-16 23:33N 41°48' E 003°21'1 1.0
2017-Mar-16 22:32N 41°48' E 003°22'1 0.5
2017-Mar-16 21:33N 41°48' E 003°21'1 1.0
2017-Mar-16 20:29N 41°48' E 003°20'2 1.7
2017-Mar-16 19:31N 41°50' E 003°19'2 0.7
2017-Mar-16 16:28N 41°48' E 003°21'1 1.3
2017-Mar-16 15:33N 41°49' E 003°20'23 1.2
2017-Mar-15 19:27N 42°11' E 003°31'1 1.3
2017-Mar-15 18:33N 42°10' E 003°32'6 2.9
2017-Mar-15 16:32N 42°09' E 003°40'  
2017-Mar-12 02:22N 41°23' E 002°11'0 0.0
2017-Mar-12 01:23N 41°23' E 002°11'0 0.0
2017-Mar-11 23:13N 41°23' E 002°11'0 0.0
2017-Mar-11 20:23N 41°23' E 002°11'0 0.0
2017-Mar-11 19:27N 41°23' E 002°11'0 0.0
2017-Mar-11 18:30N 41°23' E 002°11'0 0.0
2017-Mar-11 17:33N 41°23' E 002°11'0 0.0
2017-Mar-11 16:33N 41°23' E 002°11'0 0.0
2017-Mar-11 15:33N 41°23' E 002°11'0 0.0
2017-Mar-11 14:34N 41°23' E 002°11'0 0.0
2017-Mar-11 13:33N 41°23' E 002°11'0 0.0
2017-Mar-11 12:31N 41°23' E 002°11'0 0.0
2017-Mar-11 07:34N 41°23' E 002°11'0 0.0
2017-Mar-11 06:31N 41°23' E 002°11'0 0.0
2017-Mar-11 05:25N 41°23' E 002°11'  

Dump ship's entire track history